ADDS METAR Data INFO
IDs: Format: Raw Decoded Include TAF

Data at: 1118 UTC 21 Feb 2018

PAIL 201508Z 27004KT 10SM FEW013 BKN036 OVC043 M01/M02 A3052 RMK AO2 T10061022
PAIL 201453Z 00000KT 10SM FEW014 BKN027 OVC041 M01/M02 A3053 RMK AO2 SLP342 T10061022 51013
PAIL 201448Z 00000KT 10SM SCT014 BKN033 OVC042 M01/M02 A3053 RMK AO2 TSNO
PAIL 201353Z AUTO 33003KT 10SM OVC021 M01/M02 A3052 RMK AO2 SLP338 T10061022 TSNO
PAIL 201316Z AUTO 31003KT 10SM SCT021 BKN026 OVC031 M01/M03 A3051 RMK AO2 T10111028 TSNO
PAIL 201253Z AUTO 30004KT 10SM SCT022 SCT026 OVC032 M01/M03 A3049 RMK AO2 SLP330 T10111028 TSNO
PAIL 201251Z AUTO 30004KT 10SM SCT022 OVC032 M01/M03 A3050 RMK AO2 TSNO
PAIL 201153Z AUTO 29003KT 10SM OVC028 M01/M03 A3047 RMK AO2 SLP323 60000 T10111028 11011 21028 51013 TSNO
PAIL 201136Z AUTO 30004KT 10SM OVC028 M01/M03 A3047 RMK AO2 T10111028 TSNO
PAIL 201053Z AUTO 30004KT 10SM OVC038 M01/M03 A3046 RMK AO2 SLP320 T10111028 TSNO
PAIL 200953Z AUTO 33004KT 10SM OVC043 M01/M03 A3045 RMK AO2 SNE02 SLP314 P0000 T10111028 TSNO
PAIL 200853Z AUTO 29005KT 8SM -SN BKN041 BKN050 OVC065 M02/M03 A3044 RMK AO2 SNB15 SLP310 P0000 60000 T10171028 400061056 51018 TSNO
PAIL 200753Z AUTO 29005KT 10SM BKN060 OVC075 M02/M03 A3042 RMK AO2 SLP306 T10171033 TSNO
PAIL 200653Z AUTO 24003KT 10SM BKN085 OVC095 M02/M04 A3041 RMK AO2 SLP300 T10171039 TSNO
PAIL 200553Z 31003KT 10SM SCT095 SCT110 BKN130 M03/M04 A3039 RMK AO2 SLP293 4/003 T10281039 10006 21033 52012
PAIL 200453Z 00000KT 10SM SCT095 BKN130 M03/M04 A3038 RMK AO2 SLP290 T10281044
PAIL 200353Z 20003KT 10SM SCT085 BKN130 M03/M04 A3036 RMK AO2 SLP284 T10281039
PAIL 200253Z 19003KT 10SM FEW085 SCT130 M02/M04 A3035 RMK AO2 SLP281 T10171039 53002
PAIL 200153Z 22003KT 10SM SCT130 00/M03 A3034 RMK AO2 SLP278 T00001028
PAIL 200053Z 21005KT 10SM SCT130 01/M03 A3034 RMK AO2 SLP279 T00061028
PAIL 192353Z 11004KT 10SM SCT130 00/M04 A3034 RMK AO2 SLP279 4/003 I6001 T00001039 10000 21044 58018